RYR43MW EVRA-EGPH
Flight info
| Callsign | RYR43MW |
|---|---|
| Flight time | N/A |
| Altitude | 36000 |
| Route | TENSI2H TENSI L73 EVONA DCT VAXIT DCT REKNA DCT ROBEM DCT AGPED AGPED1E |
| Aircraft | B738/M-SDE2E3FGHIRWXY/LB1 |
Departure
| Time | N/A |
|---|---|
| Airport | Riga International Airport (EVRA) |
Arrival
| Time | 2026-05-07 14:56 |
|---|---|
| Airport | Edinburgh Airport (EGPH) |
| Time | Latitude | Longitude | Altitude | Speed | Heading |
|---|---|---|---|---|---|
| 2026-05-07 13:57 | 56.64677 | 6.10693 | 36124 ft | 421 kts | 261° |
| 2026-05-07 13:57 | 56.63684 | 6.00184 | 36125 ft | 422 kts | 261° |
| 2026-05-07 13:58 | 56.62695 | 5.89812 | 36123 ft | 423 kts | 260° |
| 2026-05-07 13:58 | 56.61680 | 5.79271 | 36130 ft | 424 kts | 260° |
| 2026-05-07 13:59 | 56.60654 | 5.68711 | 36125 ft | 425 kts | 260° |
| 2026-05-07 13:59 | 56.59621 | 5.58167 | 36122 ft | 424 kts | 260° |
| 2026-05-07 14:00 | 56.58578 | 5.47629 | 36120 ft | 424 kts | 260° |
| 2026-05-07 14:00 | 56.57525 | 5.37111 | 36124 ft | 423 kts | 260° |
| 2026-05-07 14:01 | 56.56472 | 5.26631 | 36126 ft | 422 kts | 260° |
| 2026-05-07 14:01 | 56.55411 | 5.16179 | 36125 ft | 421 kts | 259° |
| 2026-05-07 14:02 | 56.54342 | 5.05735 | 36122 ft | 421 kts | 259° |
| 2026-05-07 14:02 | 56.52850 | 4.95692 | 36126 ft | 420 kts | 248° |
| 2026-05-07 14:03 | 56.50531 | 4.85992 | 36133 ft | 420 kts | 247° |
| 2026-05-07 14:03 | 56.48193 | 4.76292 | 36119 ft | 420 kts | 247° |
| 2026-05-07 14:04 | 56.45879 | 4.66592 | 36135 ft | 420 kts | 247° |
| 2026-05-07 14:04 | 56.43565 | 4.56874 | 36129 ft | 421 kts | 247° |
| 2026-05-07 14:05 | 56.41248 | 4.47165 | 36130 ft | 422 kts | 247° |
| 2026-05-07 14:05 | 56.38911 | 4.37419 | 36129 ft | 423 kts | 247° |
| 2026-05-07 14:06 | 56.36578 | 4.27734 | 36131 ft | 424 kts | 246° |
| 2026-05-07 14:06 | 56.34216 | 4.17972 | 36133 ft | 424 kts | 246° |
| 2026-05-07 14:07 | 56.31845 | 4.08221 | 36130 ft | 425 kts | 246° |
| 2026-05-07 14:07 | 56.29497 | 3.98606 | 36134 ft | 425 kts | 246° |
| 2026-05-07 14:08 | 56.27111 | 3.88875 | 36123 ft | 425 kts | 246° |
| 2026-05-07 14:08 | 56.24718 | 3.79161 | 36119 ft | 424 kts | 246° |
| 2026-05-07 14:09 | 56.22322 | 3.69473 | 36121 ft | 423 kts | 246° |
| 2026-05-07 14:09 | 56.19923 | 3.59809 | 36124 ft | 423 kts | 246° |
| 2026-05-07 14:10 | 56.17543 | 3.50146 | 36120 ft | 423 kts | 249° |
| 2026-05-07 14:10 | 56.15969 | 3.39996 | 36130 ft | 423 kts | 256° |
| 2026-05-07 14:11 | 56.14605 | 3.29711 | 36121 ft | 423 kts | 256° |
| 2026-05-07 14:11 | 56.13215 | 3.19447 | 36124 ft | 423 kts | 256° |
| 2026-05-07 14:12 | 56.11802 | 3.09284 | 36118 ft | 423 kts | 255° |
| 2026-05-07 14:12 | 56.10379 | 2.99210 | 36118 ft | 423 kts | 255° |
| 2026-05-07 14:13 | 56.08922 | 2.88987 | 36113 ft | 424 kts | 255° |
| 2026-05-07 14:13 | 56.07458 | 2.78780 | 36123 ft | 424 kts | 255° |
| 2026-05-07 14:14 | 56.05985 | 2.68566 | 36112 ft | 424 kts | 255° |
| 2026-05-07 14:14 | 56.04503 | 2.58356 | 36113 ft | 424 kts | 255° |
| 2026-05-07 14:15 | 56.03013 | 2.48161 | 36105 ft | 424 kts | 255° |
| 2026-05-07 14:15 | 56.01515 | 2.37969 | 36105 ft | 423 kts | 254° |
| 2026-05-07 14:16 | 56.00010 | 2.27804 | 36108 ft | 423 kts | 254° |
| 2026-05-07 14:16 | 55.98499 | 2.17663 | 36103 ft | 423 kts | 254° |
| 2026-05-07 14:17 | 55.96979 | 2.07518 | 36102 ft | 422 kts | 254° |
| 2026-05-07 14:17 | 55.95476 | 1.97546 | 36103 ft | 422 kts | 254° |
| 2026-05-07 14:18 | 55.93943 | 1.87442 | 36099 ft | 421 kts | 254° |
| 2026-05-07 14:18 | 55.92405 | 1.77367 | 36095 ft | 421 kts | 253° |
| 2026-05-07 14:19 | 55.90857 | 1.67296 | 36108 ft | 421 kts | 253° |
| 2026-05-07 14:19 | 55.89305 | 1.57255 | 36089 ft | 420 kts | 253° |
| 2026-05-07 14:20 | 55.87744 | 1.47212 | 36090 ft | 420 kts | 253° |
| 2026-05-07 14:20 | 55.86177 | 1.37194 | 36088 ft | 420 kts | 253° |
| 2026-05-07 14:21 | 55.84604 | 1.27195 | 36085 ft | 419 kts | 253° |
| 2026-05-07 14:21 | 55.83022 | 1.17202 | 36087 ft | 419 kts | 253° |
| 2026-05-07 14:22 | 55.81433 | 1.07228 | 36088 ft | 419 kts | 252° |
| 2026-05-07 14:22 | 55.79858 | 0.97397 | 36077 ft | 419 kts | 252° |
| 2026-05-07 14:23 | 55.78254 | 0.87435 | 36068 ft | 419 kts | 252° |
| 2026-05-07 14:23 | 55.76643 | 0.77494 | 36071 ft | 419 kts | 252° |
| 2026-05-07 14:24 | 55.75296 | 0.69226 | 36075 ft | 419 kts | 252° |
| 2026-05-07 14:24 | 55.73406 | 0.57695 | 36073 ft | 419 kts | 252° |
| 2026-05-07 14:25 | 55.71767 | 0.47759 | 36069 ft | 419 kts | 252° |
| 2026-05-07 14:25 | 55.70389 | 0.39452 | 36064 ft | 419 kts | 252° |
| 2026-05-07 14:26 | 55.68737 | 0.29544 | 36061 ft | 419 kts | 251° |
| 2026-05-07 14:26 | 55.67090 | 0.19719 | 36055 ft | 418 kts | 251° |
| 2026-05-07 14:27 | 55.65423 | 0.09826 | 36053 ft | 417 kts | 252° |
| 2026-05-07 14:27 | 55.63757 | -0.00002 | 36051 ft | 417 kts | 251° |
| 2026-05-07 14:28 | 55.62107 | -0.09697 | 36055 ft | 416 kts | 251° |
| 2026-05-07 14:28 | 55.60429 | -0.19503 | 36044 ft | 416 kts | 251° |
| 2026-05-07 14:29 | 55.58742 | -0.29294 | 36053 ft | 415 kts | 251° |
| 2026-05-07 14:29 | 55.57053 | -0.39050 | 36043 ft | 415 kts | 251° |
| 2026-05-07 14:30 | 55.55354 | -0.48807 | 36043 ft | 415 kts | 251° |
| 2026-05-07 14:30 | 55.53649 | -0.58550 | 36047 ft | 415 kts | 251° |
| 2026-05-07 14:31 | 55.51949 | -0.68212 | 36017 ft | 415 kts | 251° |
| 2026-05-07 14:31 | 55.50217 | -0.77999 | 36030 ft | 416 kts | 251° |
| 2026-05-07 14:32 | 55.48497 | -0.87678 | 36021 ft | 417 kts | 251° |
| 2026-05-07 14:32 | 55.46755 | -0.97432 | 36026 ft | 417 kts | 250° |
| 2026-05-07 14:33 | 55.44407 | -1.06611 | 36022 ft | 415 kts | 237° |
| 2026-05-07 14:33 | 55.41294 | -1.15171 | 35840 ft | 419 kts | 236° |
| 2026-05-07 14:33 | 55.39733 | -1.19441 | 35512 ft | 418 kts | 236° |
| 2026-05-07 14:34 | 55.38172 | -1.23730 | 34979 ft | 416 kts | 236° |
| 2026-05-07 14:34 | 55.36616 | -1.28022 | 34435 ft | 416 kts | 235° |
| 2026-05-07 14:34 | 55.35065 | -1.32311 | 33827 ft | 416 kts | 236° |
| 2026-05-07 14:34 | 55.33505 | -1.36624 | 33153 ft | 417 kts | 236° |
| 2026-05-07 14:35 | 55.31951 | -1.40918 | 32519 ft | 417 kts | 236° |
| 2026-05-07 14:35 | 55.30391 | -1.45226 | 31869 ft | 417 kts | 236° |
| 2026-05-07 14:35 | 55.28838 | -1.49507 | 31236 ft | 417 kts | 236° |
| 2026-05-07 14:35 | 55.27276 | -1.53802 | 30690 ft | 415 kts | 236° |
| 2026-05-07 14:36 | 55.25734 | -1.58040 | 30229 ft | 411 kts | 237° |
| 2026-05-07 14:36 | 55.24200 | -1.62245 | 29688 ft | 407 kts | 236° |
| 2026-05-07 14:36 | 55.22681 | -1.66404 | 29200 ft | 403 kts | 236° |
| 2026-05-07 14:36 | 55.21174 | -1.70521 | 28703 ft | 399 kts | 236° |
| 2026-05-07 14:37 | 55.19684 | -1.74585 | 28231 ft | 394 kts | 236° |
| 2026-05-07 14:37 | 55.16749 | -1.82575 | 27294 ft | 387 kts | 236° |
| 2026-05-07 14:37 | 55.15297 | -1.86515 | 26842 ft | 383 kts | 236° |
| 2026-05-07 14:38 | 55.14056 | -1.90620 | 26354 ft | 383 kts | 251° |
| 2026-05-07 14:38 | 55.13662 | -1.95135 | 25944 ft | 383 kts | 268° |
| 2026-05-07 14:38 | 55.14006 | -1.99772 | 25405 ft | 388 kts | 283° |
| 2026-05-07 14:38 | 55.15041 | -2.04008 | 24892 ft | 392 kts | 295° |
| 2026-05-07 14:39 | 55.16387 | -2.08171 | 24367 ft | 395 kts | 297° |
| 2026-05-07 14:39 | 55.17807 | -2.12372 | 23818 ft | 397 kts | 297° |
| 2026-05-07 14:39 | 55.19222 | -2.16530 | 23200 ft | 398 kts | 297° |
| 2026-05-07 14:39 | 55.20610 | -2.20647 | 22621 ft | 398 kts | 297° |
| 2026-05-07 14:40 | 55.22017 | -2.24868 | 22054 ft | 395 kts | 297° |
| 2026-05-07 14:40 | 55.23371 | -2.28966 | 21514 ft | 392 kts | 297° |
| 2026-05-07 14:40 | 55.24727 | -2.33103 | 20989 ft | 390 kts | 296° |
| 2026-05-07 14:40 | 55.26071 | -2.37223 | 20452 ft | 388 kts | 296° |
| 2026-05-07 14:41 | 55.27408 | -2.41333 | 19919 ft | 386 kts | 296° |
| 2026-05-07 14:41 | 55.28732 | -2.45416 | 19392 ft | 385 kts | 296° |
| 2026-05-07 14:41 | 55.30050 | -2.49483 | 18875 ft | 383 kts | 296° |
| 2026-05-07 14:41 | 55.31361 | -2.53541 | 18363 ft | 381 kts | 296° |
| 2026-05-07 14:42 | 55.32667 | -2.57584 | 17775 ft | 380 kts | 296° |
| 2026-05-07 14:42 | 55.33963 | -2.61605 | 17218 ft | 377 kts | 296° |
| 2026-05-07 14:42 | 55.35252 | -2.65609 | 16696 ft | 374 kts | 296° |
| 2026-05-07 14:42 | 55.36523 | -2.69566 | 16179 ft | 371 kts | 296° |
| 2026-05-07 14:43 | 55.37786 | -2.73501 | 15665 ft | 368 kts | 296° |
| 2026-05-07 14:43 | 55.39036 | -2.77406 | 15170 ft | 365 kts | 295° |
| 2026-05-07 14:43 | 55.40274 | -2.81279 | 14682 ft | 362 kts | 295° |
| 2026-05-07 14:43 | 55.41502 | -2.85127 | 14206 ft | 359 kts | 295° |
| 2026-05-07 14:44 | 55.42720 | -2.88947 | 13714 ft | 356 kts | 295° |
| 2026-05-07 14:44 | 55.43926 | -2.92737 | 13171 ft | 353 kts | 295° |
| 2026-05-07 14:44 | 55.45124 | -2.96429 | 12666 ft | 342 kts | 299° |
| 2026-05-07 14:44 | 55.46746 | -2.99422 | 12217 ft | 338 kts | 320° |
| 2026-05-07 14:45 | 55.48767 | -3.01241 | 11775 ft | 335 kts | 337° |
| 2026-05-07 14:45 | 55.50956 | -3.02477 | 11321 ft | 327 kts | 339° |
| 2026-05-07 14:45 | 55.53111 | -3.03617 | 10870 ft | 319 kts | 339° |
| 2026-05-07 14:45 | 55.55204 | -3.04725 | 10441 ft | 313 kts | 339° |
| 2026-05-07 14:46 | 55.57270 | -3.05834 | 10005 ft | 306 kts | 339° |
| 2026-05-07 14:46 | 55.59288 | -3.06935 | 9556 ft | 300 kts | 339° |
| 2026-05-07 14:46 | 55.61268 | -3.08026 | 9105 ft | 295 kts | 339° |
| 2026-05-07 14:46 | 55.63190 | -3.09093 | 8741 ft | 294 kts | 339° |
| 2026-05-07 14:47 | 55.65153 | -3.10188 | 8324 ft | 297 kts | 339° |
| 2026-05-07 14:47 | 55.67136 | -3.11294 | 7916 ft | 300 kts | 338° |
| 2026-05-07 14:47 | 55.69135 | -3.12410 | 7492 ft | 303 kts | 339° |
| 2026-05-07 14:47 | 55.71159 | -3.13499 | 7080 ft | 305 kts | 343° |
| 2026-05-07 14:48 | 55.73260 | -3.13579 | 6798 ft | 299 kts | 5° |
| 2026-05-07 14:48 | 55.75271 | -3.13067 | 6561 ft | 286 kts | 6° |
| 2026-05-07 14:48 | 55.77199 | -3.12555 | 6345 ft | 275 kts | 6° |
| 2026-05-07 14:48 | 55.79063 | -3.12061 | 6124 ft | 270 kts | 6° |
| 2026-05-07 14:49 | 55.80917 | -3.11578 | 5915 ft | 268 kts | 6° |
| 2026-05-07 14:49 | 55.82757 | -3.11105 | 5724 ft | 266 kts | 7° |
| 2026-05-07 14:49 | 55.84588 | -3.10637 | 5516 ft | 265 kts | 6° |
| 2026-05-07 14:49 | 55.86442 | -3.10167 | 5310 ft | 265 kts | 6° |
| 2026-05-07 14:50 | 55.88262 | -3.09707 | 5108 ft | 264 kts | 6° |
| 2026-05-07 14:50 | 55.90083 | -3.09246 | 4909 ft | 264 kts | 6° |
| 2026-05-07 14:50 | 55.91898 | -3.08786 | 4689 ft | 263 kts | 6° |
| 2026-05-07 14:50 | 55.93709 | -3.08328 | 4482 ft | 261 kts | 6° |
| 2026-05-07 14:51 | 55.95497 | -3.07874 | 4277 ft | 258 kts | 6° |
| 2026-05-07 14:51 | 55.97267 | -3.07426 | 4068 ft | 255 kts | 6° |
| 2026-05-07 14:51 | 55.99009 | -3.06985 | 3890 ft | 251 kts | 6° |
| 2026-05-07 14:51 | 56.00720 | -3.06715 | 3697 ft | 242 kts | 350° |
| 2026-05-07 14:52 | 56.02163 | -3.07872 | 3490 ft | 219 kts | 308° |
| 2026-05-07 14:52 | 56.02740 | -3.10148 | 3280 ft | 192 kts | 264° |
| 2026-05-07 14:52 | 56.02551 | -3.12403 | 3074 ft | 180 kts | 253° |
| 2026-05-07 14:52 | 56.02303 | -3.14565 | 2838 ft | 175 kts | 251° |
| 2026-05-07 14:53 | 56.01872 | -3.16537 | 2619 ft | 167 kts | 242° |
| 2026-05-07 14:53 | 56.01368 | -3.18373 | 2407 ft | 161 kts | 238° |
| 2026-05-07 14:53 | 56.00826 | -3.20057 | 2190 ft | 157 kts | 236° |
| 2026-05-07 14:53 | 56.00260 | -3.21733 | 1977 ft | 158 kts | 236° |
| 2026-05-07 14:54 | 55.99684 | -3.23429 | 1771 ft | 161 kts | 236° |
| 2026-05-07 14:54 | 55.99107 | -3.25124 | 1530 ft | 159 kts | 237° |
| 2026-05-07 14:54 | 55.98546 | -3.26781 | 1329 ft | 151 kts | 237° |
| 2026-05-07 14:54 | 55.98024 | -3.28321 | 1160 ft | 139 kts | 237° |
| 2026-05-07 14:55 | 55.97520 | -3.29807 | 934 ft | 139 kts | 235° |
| 2026-05-07 14:55 | 55.97024 | -3.31286 | 712 ft | 137 kts | 236° |
| 2026-05-07 14:55 | 55.96540 | -3.32707 | 611 ft | 133 kts | 235° |
| 2026-05-07 14:55 | 55.96056 | -3.34156 | 375 ft | 136 kts | 237° |
| 2026-05-07 14:56 | 55.95581 | -3.35549 | 171 ft | 131 kts | 234° |
| 2026-05-07 14:56 | 55.95117 | -3.36903 | 111 ft | 113 kts | 239° |
| 2026-05-07 14:56 | 55.94826 | -3.37764 | 113 ft | 50 kts | 239° |
| 2026-05-07 14:56 | 55.94732 | -3.38034 | 113 ft | 13 kts | 225° |
| 2026-05-07 14:57 | 55.94663 | -3.38029 | 111 ft | 9 kts | 149° |
| 2026-05-07 14:57 | 55.94635 | -3.37997 | 114 ft | 4 kts | 148° |
| 2026-05-07 14:57 | 55.94608 | -3.37967 | 112 ft | 5 kts | 148° |
| 2026-05-07 14:57 | 55.94591 | -3.37896 | 114 ft | 8 kts | 82° |
| 2026-05-07 14:58 | 55.94624 | -3.37786 | 113 ft | 12 kts | 58° |
| 2026-05-07 14:58 | 55.94674 | -3.37638 | 112 ft | 16 kts | 58° |
| 2026-05-07 14:58 | 55.94738 | -3.37451 | 114 ft | 19 kts | 59° |
| 2026-05-07 14:58 | 55.94813 | -3.37228 | 115 ft | 22 kts | 58° |
| 2026-05-07 14:59 | 55.94891 | -3.36997 | 112 ft | 21 kts | 59° |
| 2026-05-07 14:59 | 55.94967 | -3.36774 | 114 ft | 21 kts | 58° |
| 2026-05-07 14:59 | 55.95041 | -3.36558 | 113 ft | 19 kts | 58° |
| 2026-05-07 14:59 | 55.95107 | -3.36363 | 114 ft | 16 kts | 58° |
| 2026-05-07 15:00 | 55.95137 | -3.36237 | 113 ft | 10 kts | 98° |
| 2026-05-07 15:00 | 55.95117 | -3.36126 | 115 ft | 9 kts | 109° |
| 2026-05-07 15:00 | 55.95097 | -3.36018 | 112 ft | 9 kts | 109° |
| 2026-05-07 15:00 | 55.95070 | -3.35918 | 114 ft | 9 kts | 118° |
| 2026-05-07 15:01 | 55.95035 | -3.35836 | 113 ft | 8 kts | 156° |
| 2026-05-07 15:01 | 55.94983 | -3.35858 | 112 ft | 7 kts | 199° |
| 2026-05-07 15:01 | 55.94942 | -3.35852 | 115 ft | 4 kts | 153° |
| 2026-05-07 15:01 | 55.94917 | -3.35870 | 115 ft | 4 kts | 240° |
| 2026-05-07 15:02 | 55.94907 | -3.35922 | 115 ft | 4 kts | 255° |
| 2026-05-07 15:02 | 55.94899 | -3.35971 | 115 ft | 4 kts | 254° |
| 2026-05-07 15:02 | 55.94894 | -3.36002 | 112 ft | 0 kts | 254° |
| 2026-05-07 15:10 | 55.94894 | -3.36001 | 116 ft | 0 kts | 254° |
| 2026-05-07 15:22 | 55.94894 | -3.36000 | 116 ft | 0 kts | 254° |
| 2026-05-07 15:27 | 55.94895 | -3.36000 | 116 ft | 0 kts | 254° |
| 2026-05-07 15:27 | 55.94894 | -3.36000 | 116 ft | 0 kts | 254° |
| 2026-05-07 15:28 | 55.94895 | -3.36000 | 116 ft | 0 kts | 254° |